Time;durP1;ratioP1;P1;durP2;ratioP2;P2;SDS_P1;SDS_P2;PMS_P1;PMS_P2;Temp;Humidity;BMP_temperature;BMP_pressure;BME280_temperature;BME280_humidity;BME280_pressure;Samples;Min_cycle;Max_cycle;Signal;HPM_P1;HPM_P2
2022/03/17 00:00:10;;;;;;;0.50;0.50;;;;;;;6.60;77.52;97394.28;29396;244;63013;-63
2022/03/17 00:00:41;;;;;;;0.60;0.60;;;;;;;6.58;77.28;97391.06;29440;245;63009;-63
2022/03/17 00:01:12;;;;;;;0.50;0.50;;;;;;;6.55;77.35;97396.97;29396;199;63004;-62
2022/03/17 00:01:43;;;;;;;0.50;0.50;;;;;;;6.56;77.46;97397.78;29396;196;63009;-63
2022/03/17 00:02:16;;;;;;;0.50;0.50;;;;;;;6.56;77.20;97392.38;29396;205;63000;-63
2022/03/17 00:02:48;;;;;;;0.50;0.50;;;;;;;6.56;77.24;97386.97;29396;196;63008;-59
2022/03/17 00:03:19;;;;;;;0.60;0.60;;;;;;;6.56;77.17;97395.06;29395;222;64008;-60
2022/03/17 00:03:50;;;;;;;0.50;0.50;;;;;;;6.56;77.07;97395.06;29396;220;63009;-62
2022/03/17 00:04:22;;;;;;;0.50;0.50;;;;;;;6.56;77.21;97385.09;29396;222;63008;-63
2022/03/17 00:04:54;;;;;;;0.50;0.50;;;;;;;6.58;77.01;97390.25;29396;217;63009;-61
2022/03/17 00:05:25;;;;;;;0.50;0.50;;;;;;;6.58;76.80;97390.25;29396;257;63013;-62
2022/03/17 00:05:56;;;;;;;0.50;0.50;;;;;;;6.59;77.04;97392.66;29396;228;63009;-63
2022/03/17 00:06:29;;;;;;;0.50;0.50;;;;;;;6.58;77.09;97385.66;29396;219;63005;-63
2022/03/17 00:07:00;;;;;;;0.50;0.50;;;;;;;6.58;76.99;97391.06;29396;213;63009;-62
2022/03/17 00:07:32;;;;;;;0.50;0.50;;;;;;;6.58;77.09;97391.06;29396;244;63005;-60
2022/03/17 00:08:04;;;;;;;0.50;0.50;;;;;;;6.58;77.07;97391.06;29396;198;63009;-63
2022/03/17 00:08:35;;;;;;;0.50;0.50;;;;;;;6.58;77.15;97395.63;29395;240;64009;-60
2022/03/17 00:09:07;;;;;;;0.50;0.50;;;;;;;6.58;77.17;97396.44;29396;243;63009;-63
2022/03/17 00:09:38;;;;;;;0.52;0.52;;;;;;;6.57;77.20;97394.81;29396;225;63004;-60
2022/03/17 00:10:15;;;;;;;0.50;0.50;;;;;;;6.57;77.35;97394.81;29396;210;63008;-63
2022/03/17 00:10:46;;;;;;;0.50;0.50;;;;;;;6.58;77.24;97398.34;29396;350;63014;-62
2022/03/17 00:11:17;;;;;;;0.50;0.50;;;;;;;6.57;77.42;97402.91;29397;199;63009;-63
2022/03/17 00:11:48;;;;;;;0.50;0.50;;;;;;;6.58;77.31;97390.25;29397;216;63005;-61
2022/03/17 00:12:19;;;;;;;0.50;0.50;;;;;;;6.56;77.59;97392.38;29397;288;63009;-60
2022/03/17 00:12:50;;;;;;;0.50;0.50;;;;;;;6.54;77.59;97394.50;29397;229;63005;-63
2022/03/17 00:13:22;;;;;;;0.50;0.50;;;;;;;6.53;77.70;97393.69;29397;227;63009;-62
2022/03/17 00:13:53;;;;;;;0.50;0.50;;;;;;;6.52;77.57;97400.16;29394;222;64009;-61
2022/03/17 00:14:24;;;;;;;0.50;0.50;;;;;;;6.52;77.81;97392.06;29397;233;63009;-63
2022/03/17 00:14:56;;;;;;;0.50;0.50;;;;;;;6.49;77.77;97395.28;29395;221;63005;-64
2022/03/17 00:15:27;;;;;;;0.50;0.50;;;;;;;6.47;77.87;97394.72;29394;203;64013;-63
2022/03/17 00:15:59;;;;;;;0.50;0.50;;;;;;;6.47;77.79;97388.50;29395;202;63004;-63
2022/03/17 00:16:32;;;;;;;0.50;0.50;;;;;;;6.48;77.90;97390.94;29395;224;63009;-62
2022/03/17 00:17:04;;;;;;;0.50;0.50;;;;;;;6.49;77.49;97389.88;29396;202;63010;-60
2022/03/17 00:17:35;;;;;;;0.60;0.60;;;;;;;6.49;77.77;97387.19;29395;284;63009;-61
2022/03/17 00:18:07;;;;;;;0.50;0.50;;;;;;;6.50;77.27;97391.50;29396;218;63004;-63
2022/03/17 00:18:39;;;;;;;0.50;0.50;;;;;;;6.51;77.41;97393.13;29395;216;63009;-64
2022/03/17 00:19:10;;;;;;;0.50;0.50;;;;;;;6.52;77.28;97392.06;29395;213;63005;-63
2022/03/17 00:19:41;;;;;;;0.50;0.50;;;;;;;6.52;77.37;97392.06;29395;203;63009;-59
2022/03/17 00:20:13;;;;;;;0.50;0.50;;;;;;;6.51;77.31;97392.31;29395;197;63005;-61
2022/03/17 00:20:45;;;;;;;0.50;0.50;;;;;;;6.53;77.21;97401.78;29393;210;64013;-63
2022/03/17 00:21:16;;;;;;;0.50;0.50;;;;;;;6.53;77.33;97399.09;29395;220;63005;-60
2022/03/17 00:21:48;;;;;;;0.50;0.50;;;;;;;6.52;77.62;97392.06;29395;203;63009;-63
2022/03/17 00:22:19;;;;;;;0.50;0.50;;;;;;;6.52;77.50;97397.47;29395;197;63005;-60
2022/03/17 00:22:50;;;;;;;0.50;0.50;;;;;;;6.50;77.87;97405.00;29395;198;63009;-64
2022/03/17 00:23:22;;;;;;;0.50;0.50;;;;;;;6.50;77.63;97399.59;29395;205;63000;-62
2022/03/17 00:23:54;;;;;;;0.50;0.50;;;;;;;6.49;77.73;97403.34;29395;213;63009;-63
2022/03/17 00:24:25;;;;;;;0.50;0.50;;;;;;;6.50;77.72;97398.78;29395;247;63004;-64
2022/03/17 00:25:00;;;;;;;0.50;0.50;;;;;;;6.48;77.83;97388.25;29395;203;63009;-62
2022/03/17 00:25:34;;;;;;;0.50;0.50;;;;;;;6.48;77.78;97406.31;29395;210;63000;-62
2022/03/17 00:26:05;;;;;;;0.50;0.50;;;;;;;6.48;77.93;97409.00;29393;201;64014;-64
2022/03/17 00:26:37;;;;;;;0.50;0.50;;;;;;;6.47;77.92;97399.28;29395;212;63001;-63
2022/03/17 00:27:09;;;;;;;0.50;0.50;;;;;;;6.47;77.81;97410.88;29395;212;63009;-62
2022/03/17 00:27:41;;;;;;;0.50;0.50;;;;;;;6.46;77.91;97417.34;29395;224;63005;-61
2022/03/17 00:28:12;;;;;;;0.50;0.50;;;;;;;6.45;78.13;97413.03;29395;217;63009;-60
2022/03/17 00:28:43;;;;;;;0.50;0.50;;;;;;;6.45;77.94;97412.19;29395;204;63014;-61
2022/03/17 00:29:15;;;;;;;0.50;0.50;;;;;;;6.44;78.18;97414.09;29394;234;63009;-63
2022/03/17 00:29:47;;;;;;;0.52;0.52;;;;;;;6.45;78.02;97423.00;29395;266;63004;-64
2022/03/17 00:30:19;;;;;;;0.50;0.50;;;;;;;6.43;77.95;97409.75;29395;199;63009;-62
2022/03/17 00:30:51;;;;;;;0.50;0.50;;;;;;;6.43;77.95;97417.84;29393;210;64009;-63
2022/03/17 00:31:22;;;;;;;0.60;0.60;;;;;;;6.44;77.99;97416.78;29395;276;63009;-61
2022/03/17 00:31:53;;;;;;;0.50;0.50;;;;;;;6.43;77.79;97409.75;29395;223;63011;-63
2022/03/17 00:32:25;;;;;;;0.50;0.50;;;;;;;6.42;78.09;97410.81;29395;220;63008;-64
2022/03/17 00:32:56;;;;;;;0.50;0.50;;;;;;;6.39;77.76;97404.06;29395;218;63004;-63
2022/03/17 00:33:27;;;;;;;0.50;0.50;;;;;;;6.36;78.08;97409.94;29395;224;63008;-59
2022/03/17 00:33:58;;;;;;;0.50;0.50;;;;;;;6.36;77.97;97415.34;29395;233;63005;-61
2022/03/17 00:34:29;;;;;;;0.50;0.50;;;;;;;6.36;78.12;97409.13;29395;208;63009;-62
2022/03/17 00:35:51;;;;;;;0.60;0.60;;;;;;;6.34;78.02;97405.88;29415;224;64013;-64
2022/03/17 00:36:23;;;;;;;0.50;0.50;;;;;;;6.29;77.86;97401.25;29395;206;63005;-64
2022/03/17 00:36:55;;;;;;;0.50;0.50;;;;;;;6.32;78.03;97411.53;29395;197;63009;-62
2022/03/17 00:37:27;;;;;;;0.50;0.50;;;;;;;6.32;77.88;97408.00;29395;305;63004;-63
2022/03/17 00:37:59;;;;;;;0.50;0.50;;;;;;;6.32;78.32;97408.81;29395;252;63009;-61
2022/03/17 00:38:30;;;;;;;0.60;0.60;;;;;;;6.30;78.35;97410.97;29393;208;64009;-61
2022/03/17 00:39:08;;;;;;;0.60;0.60;;;;;;;6.30;78.31;97405.56;29395;205;63016;-61
2022/03/17 00:39:39;;;;;;;0.50;0.50;;;;;;;6.30;78.27;97410.97;29395;218;63015;-61
2022/03/17 00:40:13;;;;;;;0.60;0.60;;;;;;;6.30;78.29;97410.97;29395;407;63008;-61
2022/03/17 00:40:48;;;;;;;0.50;0.50;;;;;;;6.30;78.34;97410.16;29393;207;64009;-60
2022/03/17 00:41:19;;;;;;;0.60;0.60;;;;;;;6.28;78.46;97406.88;29394;258;63009;-63
2022/03/17 00:41:50;;;;;;;0.50;0.50;;;;;;;6.29;78.60;97411.22;29395;204;63005;-61
2022/03/17 00:42:21;;;;;;;0.50;0.50;;;;;;;6.27;78.62;97410.66;29395;320;63009;-63
2022/03/17 00:42:55;;;;;;;0.50;0.50;;;;;;;6.26;78.54;97414.41;29395;208;63005;-62
2022/03/17 00:43:27;;;;;;;0.50;0.50;;;;;;;6.26;78.91;97414.41;29395;219;63009;-63
2022/03/17 00:44:00;;;;;;;0.50;0.50;;;;;;;6.25;78.61;97418.97;29394;203;63005;-59
2022/03/17 00:44:31;;;;;;;0.50;0.50;;;;;;;6.25;78.95;97418.16;29395;219;63009;-60
2022/03/17 00:45:03;;;;;;;0.50;0.50;;;;;;;6.25;78.63;97412.78;29395;212;63010;-64
2022/03/17 00:45:38;;;;;;;0.50;0.50;;;;;;;6.23;79.08;97421.16;29395;206;63009;-62
2022/03/17 00:46:10;;;;;;;0.50;0.50;;;;;;;6.23;78.98;97414.94;29393;321;64009;-62
2022/03/17 00:46:41;;;;;;;0.50;0.50;;;;;;;6.24;78.97;97416.53;29395;222;63009;-63
2022/03/17 00:47:15;;;;;;;0.50;0.50;;;;;;;6.24;78.98;97421.94;29395;348;63004;-63
2022/03/17 00:47:46;;;;;;;0.50;0.50;;;;;;;6.23;79.11;97415.75;29395;204;63008;-60
2022/03/17 00:48:18;;;;;;;0.50;0.50;;;;;;;6.23;78.99;97421.16;29394;204;64009;-61
2022/03/17 00:48:49;;;;;;;0.50;0.50;;;;;;;6.23;78.85;97412.25;29395;302;63009;-62
2022/03/17 00:49:20;;;;;;;0.50;0.50;;;;;;;6.23;78.63;97414.94;29395;396;63005;-63
2022/03/17 00:49:51;;;;;;;0.50;0.50;;;;;;;6.22;79.03;97419.50;29394;202;63009;-62
2022/03/17 00:50:23;;;;;;;0.50;0.50;;;;;;;6.19;78.60;97408.41;29395;236;63005;-60
2022/03/17 00:50:55;;;;;;;0.50;0.50;;;;;;;6.17;78.69;97405.97;29395;284;63009;-64
2022/03/17 00:51:26;;;;;;;3.70;3.45;;;;;;;6.16;78.76;97414.31;29395;301;63010;-63
2022/03/17 00:51:57;;;;;;;0.50;0.50;;;;;;;6.15;78.89;97410.81;29395;219;63009;-60
2022/03/17 00:52:29;;;;;;;0.77;0.77;;;;;;;6.16;78.45;97419.69;29395;222;63008;-63
2022/03/17 00:53:01;;;;;;;0.50;0.50;;;;;;;6.16;78.79;97408.94;29395;227;63009;-63
2022/03/17 00:53:33;;;;;;;0.50;0.50;;;;;;;6.16;78.70;97403.53;29394;202;64009;-63
2022/03/17 00:54:04;;;;;;;0.60;0.60;;;;;;;6.17;78.76;97410.56;29395;232;63009;-64
2022/03/17 00:54:37;;;;;;;0.60;0.60;;;;;;;6.17;78.67;97413.25;29395;203;63004;-62
2022/03/17 00:55:08;;;;;;;0.60;0.60;;;;;;;6.16;78.86;97408.94;29395;225;63008;-64
2022/03/17 00:55:43;;;;;;;0.50;0.50;;;;;;;6.17;78.73;97415.94;29395;215;63005;-62
2022/03/17 00:56:14;;;;;;;0.60;0.60;;;;;;;6.16;79.21;97409.75;29394;213;64014;-63
2022/03/17 00:56:46;;;;;;;0.60;0.60;;;;;;;6.15;79.22;97408.13;29395;254;63005;-64
2022/03/17 00:57:17;;;;;;;0.60;0.60;;;;;;;6.15;79.16;97407.28;29395;252;63009;-63
2022/03/17 00:57:49;;;;;;;0.50;0.50;;;;;;;6.15;78.96;97412.69;29394;221;64009;-60
2022/03/17 00:58:20;;;;;;;0.60;0.60;;;;;;;6.15;79.19;97408.13;29395;219;63009;-60
2022/03/17 00:58:51;;;;;;;0.50;0.50;;;;;;;6.14;79.01;97414.56;29395;197;63005;-62
2022/03/17 00:59:22;;;;;;;0.50;0.50;;;;;;;6.15;78.80;97410.00;29395;325;63009;-61
2022/03/17 00:59:53;;;;;;;0.60;0.60;;;;;;;6.15;79.09;97407.28;29395;250;63004;-59
2022/03/17 01:00:24;;;;;;;0.50;0.50;;;;;;;6.13;79.00;97409.44;29395;213;63004;-63
2022/03/17 01:00:56;;;;;;;0.50;0.50;;;;;;;6.11;78.87;97409.69;29395;245;63004;-61
2022/03/17 01:01:27;;;;;;;1.05;1.05;;;;;;;6.08;79.12;97412.88;29395;277;63009;-62
2022/03/17 01:01:58;;;;;;;0.60;0.60;;;;;;;6.07;78.90;97405.84;29395;346;63004;-61
2022/03/17 01:02:30;;;;;;;0.50;0.50;;;;;;;6.07;78.79;97405.03;29395;210;63008;-60
2022/03/17 01:03:02;;;;;;;0.50;0.50;;;;;;;6.08;78.89;97403.97;29394;328;64009;-60
2022/03/17 01:03:36;;;;;;;0.50;0.50;;;;;;;6.07;78.88;97399.66;29395;218;63009;-63
2022/03/17 01:04:08;;;;;;;0.57;0.57;;;;;;;6.08;78.53;97401.28;29395;220;63001;-63
2022/03/17 01:04:42;;;;;;;0.60;0.60;;;;;;;6.09;78.71;97397.53;29395;245;63009;-63
2022/03/17 01:05:14;;;;;;;0.60;0.60;;;;;;;6.10;78.66;97399.97;29395;209;63005;-64
2022/03/17 01:05:45;;;;;;;0.60;0.60;;;;;;;6.10;78.69;97399.16;29394;232;64013;-63
2022/03/17 01:06:16;;;;;;;0.50;0.50;;;;;;;6.09;79.17;97397.53;29395;273;63005;-62
2022/03/17 01:06:47;;;;;;;0.50;0.50;;;;;;;6.10;78.84;97401.84;29394;204;64013;-62
2022/03/17 01:07:18;;;;;;;0.50;0.50;;;;;;;6.11;78.89;97398.09;29395;202;63004;-63
2022/03/17 01:07:53;;;;;;;0.60;0.60;;;;;;;6.11;79.15;97400.78;29395;215;63009;-63
2022/03/17 01:08:24;;;;;;;0.50;0.50;;;;;;;6.11;79.23;97400.78;29394;202;64009;-62
2022/03/17 01:08:55;;;;;;;0.60;0.60;;;;;;;6.10;78.83;97397.28;29395;214;63009;-60
2022/03/17 01:09:29;;;;;;;0.50;0.50;;;;;;;6.11;78.64;97392.69;29394;234;64009;-60
2022/03/17 01:10:01;;;;;;;0.60;0.60;;;;;;;6.10;78.94;97399.97;29395;233;63008;-61
2022/03/17 01:10:32;;;;;;;0.60;0.60;;;;;;;6.10;78.77;97396.47;29395;222;63004;-63
2022/03/17 01:11:04;;;;;;;0.60;0.60;;;;;;;6.11;78.80;97400.78;29395;204;63009;-63
2022/03/17 01:11:35;;;;;;;0.60;0.60;;;;;;;6.11;78.96;97401.59;29395;214;63005;-63
2022/03/17 01:12:07;;;;;;;0.50;0.50;;;;;;;6.11;78.69;97401.59;29395;275;63009;-62
2022/03/17 01:12:39;;;;;;;0.60;0.60;;;;;;;6.11;78.74;97400.78;29395;319;63005;-63
2022/03/17 01:13:11;;;;;;;0.50;0.50;;;;;;;6.10;79.03;97404.53;29395;240;63005;-63
2022/03/17 01:13:43;;;;;;;0.60;0.60;;;;;;;6.11;78.74;97404.28;29395;198;63005;-63
2022/03/17 01:14:15;;;;;;;0.60;0.60;;;;;;;6.11;79.03;97406.16;29394;209;64013;-64
2022/03/17 01:14:47;;;;;;;0.50;0.50;;;;;;;6.12;78.91;97399.72;29395;233;63004;-60
2022/03/17 01:15:21;;;;;;;0.50;0.50;;;;;;;6.14;78.64;97405.66;29395;212;63015;-63
2022/03/17 01:15:52;;;;;;;0.60;0.60;;;;;;;6.13;78.93;97406.72;29395;213;63008;-62
2022/03/17 01:16:23;;;;;;;0.50;0.50;;;;;;;6.13;78.91;97404.03;29395;265;63026;-63
2022/03/17 01:16:55;;;;;;;0.50;0.50;;;;;;;6.14;78.43;97402.97;29395;207;63004;-63
2022/03/17 01:17:27;;;;;;;0.50;0.50;;;;;;;6.14;78.71;97402.97;29395;202;63008;-62
2022/03/17 01:18:02;;;;;;;0.60;0.60;;;;;;;6.14;78.86;97406.47;29394;202;64008;-63
2022/03/17 01:18:34;;;;;;;0.60;0.60;;;;;;;6.13;78.64;97409.44;29395;229;63016;-62
2022/03/17 01:19:06;;;;;;;0.50;0.50;;;;;;;6.11;79.12;97411.56;29395;203;63011;-64
2022/03/17 01:19:37;;;;;;;0.60;0.60;;;;;;;6.09;79.07;97403.72;29395;219;63009;-63
2022/03/17 01:20:11;;;;;;;0.50;0.50;;;;;;;6.09;78.71;97406.41;29395;295;63005;-64
2022/03/17 01:20:45;;;;;;;0.50;0.50;;;;;;;6.09;78.87;97400.22;29395;208;63009;-63
2022/03/17 01:21:16;;;;;;;0.50;0.50;;;;;;;6.08;78.91;97406.66;29394;300;64005;-62
2022/03/17 01:21:49;;;;;;;0.50;0.50;;;;;;;6.07;79.16;97410.44;29395;241;63009;-63
2022/03/17 01:22:23;;;;;;;0.50;0.50;;;;;;;6.06;78.95;97409.63;29395;244;63004;-64
2022/03/17 01:22:56;;;;;;;0.50;0.50;;;;;;;6.05;78.97;97407.97;29394;198;64013;-63
2022/03/17 01:23:27;;;;;;;0.50;0.50;;;;;;;6.04;78.85;97406.34;29395;238;63004;-64
2022/03/17 01:23:59;;;;;;;0.60;0.60;;;;;;;6.04;79.18;97409.03;29395;241;63025;-62
2022/03/17 01:24:30;;;;;;;0.50;0.50;;;;;;;6.04;79.06;97403.66;29395;230;63004;-63
2022/03/17 01:25:01;;;;;;;0.50;0.50;;;;;;;6.04;79.09;97396.38;29394;249;64013;-64
2022/03/17 01:25:36;;;;;;;0.60;0.60;;;;;;;6.01;78.73;97407.66;29395;232;63009;-64
2022/03/17 01:26:07;;;;;;;0.60;0.60;;;;;;;5.97;79.00;97389.56;29395;331;63009;-63
2022/03/17 01:26:39;;;;;;;0.60;0.60;;;;;;;5.98;79.08;97397.38;29395;223;63005;-64
2022/03/17 01:27:10;;;;;;;0.50;0.50;;;;;;;5.99;79.15;97393.63;29395;230;63009;-64
2022/03/17 01:27:41;;;;;;;0.60;0.60;;;;;;;5.99;78.82;97393.63;29394;225;64009;-63
2022/03/17 01:28:13;;;;;;;0.60;0.60;;;;;;;5.99;78.88;97393.63;29395;228;63009;-63
2022/03/17 01:28:44;;;;;;;0.50;0.50;;;;;;;5.98;78.79;97392.00;29395;251;63005;-63
2022/03/17 01:29:15;;;;;;;0.85;0.85;;;;;;;5.97;78.98;97398.44;29395;229;63009;-64
2022/03/17 01:29:51;;;;;;;0.60;0.60;;;;;;;5.97;78.83;97395.75;29394;303;64009;-63
2022/03/17 01:30:22;;;;;;;0.70;0.70;;;;;;;5.98;78.73;97396.56;29394;196;64013;-63
2022/03/17 01:30:55;;;;;;;0.50;0.50;;;;;;;5.98;78.71;97392.00;29395;246;63004;-60
2022/03/17 01:31:26;;;;;;;0.50;0.50;;;;;;;5.98;78.94;97394.69;29395;351;63009;-63
2022/03/17 01:31:57;;;;;;;0.98;0.98;;;;;;;5.99;78.35;97390.94;29395;249;63004;-64
2022/03/17 01:32:28;;;;;;;0.50;0.50;;;;;;;5.99;78.61;97388.25;29395;202;63008;-64
2022/03/17 01:33:00;;;;;;;0.50;0.50;;;;;;;5.98;78.48;97386.63;29394;210;64008;-63
2022/03/17 01:33:34;;;;;;;2.35;2.25;;;;;;;5.98;78.14;97392.00;29394;197;64014;-64
2022/03/17 01:34:05;;;;;;;0.65;0.65;;;;;;;5.98;78.37;97389.31;29395;203;63005;-63
2022/03/17 01:34:36;;;;;;;0.50;0.50;;;;;;;6.00;78.29;97389.06;29395;209;63009;-62
2022/03/17 01:35:09;;;;;;;0.60;0.60;;;;;;;6.01;78.49;97396.06;29395;245;63005;-63
2022/03/17 01:35:40;;;;;;;0.57;0.57;;;;;;;6.01;78.39;97386.13;29394;253;64013;-65
2022/03/17 01:36:11;;;;;;;0.50;0.50;;;;;;;6.02;78.33;97393.13;29395;225;63005;-64
2022/03/17 01:36:42;;;;;;;0.60;0.60;;;;;;;6.03;78.58;97394.75;29395;203;63009;-61
2022/03/17 01:37:14;;;;;;;0.50;0.50;;;;;;;6.04;78.39;97393.69;29395;247;63018;-63
2022/03/17 01:37:45;;;;;;;0.60;0.60;;;;;;;6.05;78.58;97391.81;29395;198;63009;-63
2022/03/17 01:38:16;;;;;;;0.50;0.50;;;;;;;6.05;78.42;97394.50;29395;207;63004;-64
2022/03/17 01:38:47;;;;;;;0.50;0.50;;;;;;;6.05;78.70;97403.41;29395;210;63009;-64
2022/03/17 01:39:20;;;;;;;0.50;0.50;;;;;;;6.05;78.53;97391.81;29395;235;63004;-63
2022/03/17 01:39:54;;;;;;;0.50;0.50;;;;;;;6.05;78.61;97392.63;29394;209;64013;-64
2022/03/17 01:40:25;;;;;;;0.50;0.50;;;;;;;6.05;78.54;97386.44;29395;218;63005;-64
2022/03/17 01:40:56;;;;;;;0.60;0.60;;;;;;;6.05;78.67;97392.63;29395;242;63009;-65
2022/03/17 01:41:27;;;;;;;0.50;0.50;;;;;;;6.08;78.37;97385.13;29395;234;63008;-63
2022/03/17 01:41:59;;;;;;;0.77;0.77;;;;;;;6.08;77.95;97390.50;29395;417;63009;-63
2022/03/17 01:42:32;;;;;;;0.60;0.60;;;;;;;6.01;77.88;97385.31;29395;218;63005;-63
2022/03/17 01:43:03;;;;;;;0.57;0.57;;;;;;;6.05;78.04;97392.63;29395;219;63020;-61
2022/03/17 01:43:34;;;;;;;0.50;0.50;;;;;;;6.07;77.94;97394.25;29394;287;64009;-64
2022/03/17 01:44:06;;;;;;;0.50;0.50;;;;;;;6.07;78.12;97394.25;29395;220;63009;-61
2022/03/17 01:44:38;;;;;;;0.50;0.50;;;;;;;6.05;77.96;97389.13;29395;218;63004;-63
2022/03/17 01:45:10;;;;;;;0.50;0.50;;;;;;;6.07;77.91;97391.56;29395;418;63009;-64
2022/03/17 01:45:41;;;;;;;0.50;0.50;;;;;;;6.05;77.86;97384.56;29395;223;63004;-62
2022/03/17 01:46:15;;;;;;;0.50;0.50;;;;;;;6.05;77.83;97389.94;29395;232;63009;-64
2022/03/17 01:47:38;;;;;;;0.60;0.60;;;;;;;6.07;78.23;97394.25;29395;202;63023;-63
2022/03/17 01:48:11;;;;;;;0.50;0.50;;;;;;;6.08;78.09;97385.94;29395;225;63005;-61
2022/03/17 01:48:43;;;;;;;0.50;0.50;;;;;;;6.07;78.09;97389.69;29394;204;64014;-63
2022/03/17 01:49:14;;;;;;;0.50;0.50;;;;;;;6.07;77.91;97388.88;29395;220;63005;-64
2022/03/17 01:49:45;;;;;;;0.50;0.50;;;;;;;6.07;78.05;97383.50;29395;236;63009;-63
2022/03/17 01:50:17;;;;;;;0.50;0.50;;;;;;;6.07;77.99;97378.91;29395;209;63005;-63
2022/03/17 01:50:54;;;;;;;0.50;0.50;;;;;;;6.08;78.07;97385.13;29395;226;63009;-63
2022/03/17 01:51:26;;;;;;;0.50;0.50;;;;;;;6.09;77.79;97381.34;29395;208;63009;-64
2022/03/17 01:51:57;;;;;;;0.50;0.50;;;;;;;6.10;77.90;97385.69;29395;253;63009;-63
2022/03/17 01:52:28;;;;;;;0.50;0.50;;;;;;;6.09;77.64;97387.56;29394;206;64009;-63
2022/03/17 01:52:59;;;;;;;0.50;0.50;;;;;;;6.11;77.50;97392.69;29395;230;63009;-64
2022/03/17 01:53:35;;;;;;;0.50;0.50;;;;;;;6.11;77.23;97390.00;29394;235;64009;-63
2022/03/17 01:54:08;;;;;;;0.57;0.57;;;;;;;6.10;77.06;97393.75;29395;277;63009;-62
2022/03/17 01:54:41;;;;;;;0.50;0.50;;;;;;;6.10;77.14;97393.75;29395;233;63004;-62
2022/03/17 01:55:14;;;;;;;0.50;0.50;;;;;;;6.10;77.37;97397.28;29395;197;63009;-60
2022/03/17 01:55:45;;;;;;;0.57;0.57;;;;;;;6.11;77.19;97392.69;29395;206;63005;-62
2022/03/17 01:56:18;;;;;;;0.57;0.57;;;;;;;6.11;77.36;97400.78;29395;205;63009;-63
2022/03/17 01:56:51;;;;;;;0.50;0.50;;;;;;;6.09;77.53;97392.13;29395;248;63005;-62
2022/03/17 01:57:29;;;;;;;0.65;0.65;;;;;;;6.11;77.50;97390.81;29395;218;63009;-64
2022/03/17 01:58:03;;;;;;;0.50;0.50;;;;;;;6.12;77.76;97397.03;29395;306;63005;-63
2022/03/17 01:58:35;;;;;;;0.57;0.57;;;;;;;6.12;77.73;97391.63;29395;232;63009;-62
2022/03/17 01:59:07;;;;;;;0.60;0.60;;;;;;;6.11;77.96;97406.16;29394;204;64009;-63
2022/03/17 01:59:43;;;;;;;0.57;0.57;;;;;;;6.08;77.93;97401.28;29395;206;63009;-64
2022/03/17 02:00:18;;;;;;;0.50;0.50;;;;;;;6.08;77.98;97406.66;29395;360;63004;-63
2022/03/17 02:00:51;;;;;;;0.50;0.50;;;;;;;6.04;78.08;97399.09;29395;299;63009;-64
2022/03/17 02:01:23;;;;;;;0.60;0.60;;;;;;;6.04;77.94;97407.16;29395;350;63004;-60
2022/03/17 02:01:55;;;;;;;0.50;0.50;;;;;;;6.04;77.98;97409.03;29395;199;63008;-64
2022/03/17 02:02:27;;;;;;;0.50;0.50;;;;;;;6.01;77.84;97407.66;29395;268;63004;-64
2022/03/17 02:02:58;;;;;;;0.50;0.50;;;;;;;6.01;78.14;97407.66;29395;202;63009;-62
2022/03/17 02:03:29;;;;;;;0.50;0.50;;;;;;;6.01;77.89;97407.66;29395;347;63005;-64
2022/03/17 02:04:00;;;;;;;0.50;0.50;;;;;;;6.01;78.14;97406.84;29395;283;63022;-64
2022/03/17 02:04:35;;;;;;;0.60;0.60;;;;;;;6.00;78.37;97406.03;29394;213;64009;-62
2022/03/17 02:05:10;;;;;;;0.50;0.50;;;;;;;5.98;78.16;97401.97;29395;220;63009;-60
2022/03/17 02:05:43;;;;;;;0.50;0.50;;;;;;;5.98;78.33;97410.84;29394;226;64009;-63
2022/03/17 02:06:14;;;;;;;0.50;0.50;;;;;;;5.96;78.38;97399.53;29395;233;63009;-61
2022/03/17 02:06:46;;;;;;;0.50;0.50;;;;;;;5.94;78.45;97401.66;29395;289;63004;-62
2022/03/17 02:07:19;;;;;;;0.50;0.50;;;;;;;5.93;78.67;97400.00;29395;197;63009;-63
2022/03/17 02:07:51;;;;;;;0.60;0.60;;;;;;;5.92;78.47;97403.78;29395;219;63004;-62
2022/03/17 02:08:22;;;;;;;0.60;0.60;;;;;;;5.93;78.68;97404.59;29395;276;63009;-64
2022/03/17 02:08:53;;;;;;;0.50;0.50;;;;;;;5.91;78.57;97412.09;29395;204;63004;-62
2022/03/17 02:09:26;;;;;;;0.50;0.50;;;;;;;5.90;78.83;97408.59;29395;222;63008;-64
2022/03/17 02:09:57;;;;;;;0.60;0.60;;;;;;;5.90;78.60;97411.28;29395;233;63009;-63
2022/03/17 02:13:08;;;;;;;0.50;0.50;;;;;;;5.91;78.82;97407.53;29394;229;64014;-64
2022/03/17 02:13:11;;;;;;;0.55;0.55;;;;;;;5.94;78.26;97412.41;29395;208;63005;-63
2022/03/17 02:13:42;;;;;;;0.50;0.50;;;;;;;5.92;78.37;97409.16;29417;240;63009;-63
2022/03/17 02:14:14;;;;;;;0.50;0.50;;;;;;;5.89;78.32;97400.78;29395;218;63005;-63
2022/03/17 02:14:57;;;;;;;1.45;1.40;;;;;;;5.87;78.14;97410.97;29394;221;64013;-63
2022/03/17 02:15:32;;;;;;;0.50;0.50;;;;;;;5.87;78.27;97409.09;29394;212;64009;-60
2022/03/17 02:16:04;;;;;;;0.50;0.50;;;;;;;5.88;78.16;97409.91;29395;236;63004;-64
2022/03/17 02:16:35;;;;;;;0.50;0.50;;;;;;;5.87;77.99;97406.41;29395;235;63010;-62
2022/03/17 02:17:07;;;;;;;0.52;0.52;;;;;;;5.87;78.21;97410.97;29395;226;63008;-62
2022/03/17 02:17:40;;;;;;;0.50;0.50;;;;;;;5.89;78.24;97409.66;29395;261;63004;-63
2022/03/17 02:18:13;;;;;;;0.60;0.60;;;;;;;5.89;78.16;97409.66;29395;250;63009;-63
2022/03/17 02:18:46;;;;;;;0.50;0.50;;;;;;;5.91;78.14;97412.09;29394;197;64009;-63
2022/03/17 02:19:22;;;;;;;0.60;0.60;;;;;;;5.91;78.02;97407.53;29395;336;63009;-62
2022/03/17 02:19:54;;;;;;;0.50;0.50;;;;;;;5.92;77.41;97409.16;29395;328;63005;-61
2022/03/17 02:20:27;;;;;;;0.50;0.50;;;;;;;5.93;77.61;97410.78;29395;212;63009;-64
2022/03/17 02:21:01;;;;;;;0.60;0.60;;;;;;;5.94;77.45;97401.66;29395;216;63005;-63
2022/03/17 02:21:34;;;;;;;0.50;0.50;;;;;;;5.95;77.69;97403.28;29395;197;63009;-65
2022/03/17 02:22:06;;;;;;;0.50;0.50;;;;;;;5.97;77.38;97408.41;29395;235;63004;-61
2022/03/17 02:22:46;;;;;;;0.50;0.50;;;;;;;5.99;77.62;97403.59;29395;197;63016;-65
2022/03/17 02:25:50;;;;;;;0.50;0.50;;;;;;;5.99;77.69;97412.50;29416;228;64014;-63
2022/03/17 02:26:22;;;;;;;0.50;0.50;;;;;;;5.98;77.96;97412.72;29395;220;63005;-63
2022/03/17 02:26:57;;;;;;;0.50;0.50;;;;;;;5.97;77.86;97417.31;29395;372;63009;-61
2022/03/17 02:27:31;;;;;;;0.50;0.50;;;;;;;5.98;77.74;97410.03;29395;214;63005;-61
2022/03/17 02:28:07;;;;;;;0.60;0.60;;;;;;;5.98;78.19;97413.56;29395;239;63009;-61
2022/03/17 02:28:38;;;;;;;0.52;0.52;;;;;;;5.97;77.90;97417.31;29395;197;63004;-61
2022/03/17 02:29:09;;;;;;;0.60;0.60;;;;;;;5.98;78.02;97413.56;29395;198;63009;-63
2022/03/17 02:29:41;;;;;;;0.60;0.60;;;;;;;5.99;77.85;97415.19;29395;366;63004;-62
2022/03/17 02:30:17;;;;;;;0.98;0.98;;;;;;;6.00;77.95;97406.03;29395;202;63009;-63
2022/03/17 02:30:50;;;;;;;0.60;0.60;;;;;;;6.01;77.91;97413.06;29394;218;64009;-62
2022/03/17 02:31:21;;;;;;;0.50;0.50;;;;;;;6.03;77.62;97410.94;29395;249;63004;-61
2022/03/17 02:31:53;;;;;;;0.50;0.50;;;;;;;6.05;77.35;97413.38;29395;228;63004;-60
2022/03/17 02:32:27;;;;;;;0.50;0.50;;;;;;;6.07;76.78;97411.25;29395;198;63008;-63
2022/03/17 02:33:05;;;;;;;0.50;0.50;;;;;;;6.10;76.68;97409.94;29395;213;63005;-65
2022/03/17 02:33:40;;;;;;;0.60;0.60;;;;;;;6.11;76.68;97411.56;29395;227;63018;-64
2022/03/17 02:34:11;;;;;;;0.60;0.60;;;;;;;6.11;76.50;97411.56;29395;266;63005;-65
2022/03/17 02:34:44;;;;;;;0.50;0.50;;;;;;;6.11;76.34;97416.94;29395;227;63009;-63
2022/03/17 02:35:22;;;;;;;0.50;0.50;;;;;;;6.09;76.51;97414.50;29395;219;63005;-63
2022/03/17 02:35:53;;;;;;;0.60;0.60;;;;;;;6.10;76.57;97412.63;29394;260;64013;-64
2022/03/17 02:36:25;;;;;;;0.60;0.60;;;;;;;6.10;76.83;97409.94;29395;228;63004;-63
2022/03/17 02:36:56;;;;;;;0.50;0.50;;;;;;;6.13;76.79;97404.03;29395;218;63009;-63
2022/03/17 02:37:28;;;;;;;0.50;0.50;;;;;;;6.12;76.61;97414.00;29395;246;63010;-63
2022/03/17 02:38:02;;;;;;;0.50;0.50;;;;;;;6.14;76.60;97411.06;29395;209;63009;-62
2022/03/17 02:38:34;;;;;;;0.60;0.60;;;;;;;6.15;76.34;97413.50;29395;239;63004;-65
2022/03/17 02:39:06;;;;;;;0.50;0.50;;;;;;;6.16;76.45;97406.22;29395;238;63008;-62
2022/03/17 02:39:39;;;;;;;0.50;0.50;;;;;;;6.19;76.10;97413.81;29395;215;63005;-64
2022/03/17 02:40:11;;;;;;;0.50;0.50;;;;;;;6.20;76.27;97410.06;29395;300;63009;-61
2022/03/17 02:40:46;;;;;;;0.50;0.50;;;;;;;6.23;75.66;97414.94;29394;202;64009;-62
2022/03/17 02:41:22;;;;;;;0.50;0.50;;;;;;;6.25;75.60;97412.78;29395;213;63009;-63
2022/03/17 02:41:55;;;;;;;0.50;0.50;;;;;;;6.27;75.69;97410.66;29395;288;63005;-63